createdAt,value
2022-09-06T00:00:42.156Z,50.35
2022-09-06T00:01:42.154Z,47.18
2022-09-06T00:02:42.238Z,53.49
2022-09-06T00:03:42.178Z,52.84
2022-09-06T00:04:42.150Z,61.05
2022-09-06T00:05:42.112Z,63.04
2022-09-06T00:06:42.103Z,51.99
2022-09-06T00:07:42.091Z,50.77
2022-09-06T00:08:42.109Z,42.78
2022-09-06T00:09:42.231Z,42.42
2022-09-06T00:10:42.150Z,53.68
2022-09-06T00:11:42.080Z,61.84
2022-09-06T00:12:42.056Z,50.62
2022-09-06T00:13:42.065Z,57.12
2022-09-06T00:14:42.030Z,57.74
2022-09-06T00:15:42.086Z,52.84
2022-09-06T00:16:42.027Z,63.25
2022-09-06T00:17:42.008Z,61.15
2022-09-06T00:18:42.027Z,52.45
2022-09-06T00:19:41.984Z,51.69
2022-09-06T00:20:41.991Z,54.01
2022-09-06T00:21:41.969Z,55.43
2022-09-06T00:22:41.965Z,49.29
2022-09-06T00:23:41.985Z,52.92
2022-09-06T00:24:41.955Z,52.83
2022-09-06T00:25:41.943Z,54.83
2022-09-06T00:26:41.934Z,51.19
2022-09-06T00:27:41.931Z,48.53
2022-09-06T00:28:41.942Z,50.51
2022-09-06T00:29:41.905Z,54.64
2022-09-06T00:30:41.911Z,66.70
2022-09-06T00:31:41.893Z,53.80
2022-09-06T00:32:41.874Z,56.89
2022-09-06T00:33:41.913Z,61.44
2022-09-06T00:34:41.871Z,59.29
2022-09-06T00:35:41.856Z,48.39
2022-09-06T00:36:41.903Z,46.61
2022-09-06T00:37:41.836Z,57.99
2022-09-06T00:38:41.871Z,42.77
2022-09-06T00:39:41.891Z,43.16
2022-09-06T00:40:41.811Z,60.77
2022-09-06T00:41:41.817Z,60.69
2022-09-06T00:42:41.806Z,49.29
2022-09-06T00:43:41.830Z,45.63
2022-09-06T00:44:41.812Z,50.13
2022-09-06T00:45:41.769Z,51.80
2022-09-06T00:46:41.817Z,41.91
2022-09-06T00:47:41.762Z,42.36
2022-09-06T00:48:41.771Z,58.94
2022-09-06T00:49:41.745Z,45.11
2022-09-06T00:50:41.743Z,54.12
2022-09-06T00:51:41.724Z,43.57
2022-09-06T00:52:41.715Z,49.57
2022-09-06T00:53:41.736Z,66.61
2022-09-06T00:54:41.692Z,55.07
2022-09-06T00:55:41.685Z,44.92
2022-09-06T00:56:41.687Z,48.55
2022-09-06T00:57:41.668Z,43.42
2022-09-06T00:58:41.693Z,63.31
2022-09-06T00:59:41.657Z,57.14
2022-09-06T01:00:41.648Z,53.92
2022-09-06T01:01:41.785Z,51.93
2022-09-06T01:02:41.732Z,57.72
2022-09-06T01:03:41.653Z,61.86
2022-09-06T01:04:41.618Z,56.30
2022-09-06T01:05:41.608Z,55.00
2022-09-06T01:06:41.597Z,49.49
2022-09-06T01:07:41.599Z,51.55
2022-09-06T01:08:41.603Z,62.67
2022-09-06T01:09:41.575Z,55.77
2022-09-06T01:10:41.682Z,53.76
2022-09-06T01:11:41.565Z,63.16
2022-09-06T01:12:41.552Z,51.63
2022-09-06T01:13:41.577Z,45.02
2022-09-06T01:14:41.549Z,57.95
2022-09-06T01:15:41.554Z,61.08
2022-09-06T01:16:41.521Z,50.65
2022-09-06T01:17:41.570Z,53.67
2022-09-06T01:18:41.527Z,59.68
2022-09-06T01:19:41.505Z,52.43
2022-09-06T01:20:41.480Z,62.33
2022-09-06T01:21:41.493Z,63.08
2022-09-06T01:22:41.462Z,47.70
2022-09-06T01:23:41.488Z,41.89
2022-09-06T01:24:41.471Z,41.85
2022-09-06T01:25:41.433Z,49.43
2022-09-06T01:26:41.430Z,50.67
2022-09-06T01:27:41.428Z,55.32
2022-09-06T01:28:41.451Z,43.76
2022-09-06T01:29:41.408Z,45.99
2022-09-06T01:30:41.442Z,52.96
2022-09-06T01:31:41.408Z,56.50
2022-09-06T01:32:41.377Z,49.83
2022-09-06T01:33:41.394Z,58.29
2022-09-06T01:34:41.651Z,69.80
2022-09-06T01:35:41.357Z,46.10
2022-09-06T01:36:54.328Z,50.23
2022-09-06T01:37:43.341Z,50.70
2022-09-06T01:38:41.358Z,51.26
2022-09-06T01:39:41.396Z,61.79
2022-09-06T01:40:41.312Z,55.10
2022-09-06T01:41:41.307Z,65.07
2022-09-06T01:42:41.295Z,63.40
2022-09-06T01:43:41.311Z,52.70
2022-09-06T01:44:41.280Z,51.16
2022-09-06T01:45:41.269Z,56.56
2022-09-06T01:46:41.258Z,53.40
2022-09-06T01:47:41.258Z,56.90
2022-09-06T01:48:41.313Z,50.33
2022-09-06T01:49:41.254Z,50.09
2022-09-06T01:50:41.232Z,44.57
2022-09-06T01:51:41.257Z,57.09
2022-09-06T01:52:41.216Z,50.94
2022-09-06T01:53:41.238Z,63.59
2022-09-06T01:54:41.322Z,54.16
2022-09-06T01:55:41.188Z,53.12
2022-09-06T01:56:41.259Z,52.86
2022-09-06T01:57:41.169Z,56.17
2022-09-06T01:58:41.220Z,58.52
2022-09-06T01:59:41.152Z,60.83
2022-09-06T02:00:41.153Z,55.71
2022-09-06T02:01:41.204Z,61.99
2022-09-06T02:02:41.141Z,51.64
2022-09-06T02:03:41.119Z,59.68
2022-09-06T02:04:41.153Z,48.86
2022-09-06T02:05:41.103Z,56.15
2022-09-06T02:06:41.087Z,56.15
2022-09-06T02:07:41.094Z,54.55
2022-09-06T02:08:41.086Z,56.63
2022-09-06T02:09:41.095Z,55.32
2022-09-06T02:10:41.064Z,60.55
2022-09-06T02:11:41.047Z,51.75
2022-09-06T02:12:41.037Z,66.75
2022-09-06T02:13:41.062Z,53.63
2022-09-06T02:14:41.048Z,45.92
2022-09-06T02:15:41.067Z,50.01
2022-09-06T02:16:41.044Z,53.93
2022-09-06T02:17:41.004Z,54.90
2022-09-06T02:18:41.026Z,53.97
2022-09-06T02:19:41.002Z,53.86
2022-09-06T02:20:40.980Z,48.82
2022-09-06T02:21:40.970Z,49.00
2022-09-06T02:22:40.973Z,51.96
2022-09-06T02:23:40.987Z,51.74
2022-09-06T02:24:40.942Z,58.41
2022-09-06T02:25:41.029Z,62.53
2022-09-06T02:26:40.927Z,59.13
2022-09-06T02:27:40.928Z,57.93
2022-09-06T02:28:40.916Z,52.35
2022-09-06T02:29:40.926Z,56.91
2022-09-06T02:30:41.940Z,57.06
2022-09-06T02:31:40.933Z,54.42
2022-09-06T02:32:40.878Z,45.72
2022-09-06T02:33:40.869Z,55.18
2022-09-06T02:34:40.890Z,51.46
2022-09-06T02:35:40.920Z,58.02
2022-09-06T02:36:40.902Z,54.42
2022-09-06T02:37:40.839Z,55.48
2022-09-06T02:38:40.828Z,58.67
2022-09-06T02:39:40.943Z,60.47
2022-09-06T02:40:40.822Z,59.05
2022-09-06T02:41:40.812Z,60.64
2022-09-06T02:42:40.798Z,56.58
2022-09-06T02:43:40.796Z,50.80
2022-09-06T02:44:40.812Z,52.97
2022-09-06T02:45:40.815Z,66.86
2022-09-06T02:46:40.765Z,53.84
2022-09-06T02:47:40.758Z,52.90
2022-09-06T02:48:40.746Z,46.76
2022-09-06T02:49:40.774Z,57.84
2022-09-06T02:50:40.742Z,52.94
2022-09-06T02:51:40.721Z,53.25
2022-09-06T02:52:40.717Z,66.44
2022-09-06T02:53:40.710Z,49.50
2022-09-06T02:54:40.746Z,59.27
2022-09-06T02:55:40.695Z,60.14
2022-09-06T02:56:40.686Z,59.47
2022-09-06T02:57:40.679Z,68.48
2022-09-06T02:58:40.685Z,58.51
2022-09-06T02:59:40.688Z,57.88
2022-09-06T03:00:40.662Z,63.66
2022-09-06T03:01:40.724Z,59.57
2022-09-06T03:02:40.679Z,57.96
2022-09-06T03:03:40.633Z,62.82
2022-09-06T03:04:40.656Z,61.61
2022-09-06T03:05:40.623Z,55.57
2022-09-06T03:06:40.603Z,65.20
2022-09-06T03:07:40.610Z,55.03
2022-09-06T03:08:40.597Z,51.06
2022-09-06T03:09:40.639Z,65.52
2022-09-06T03:10:40.580Z,59.84
2022-09-06T03:11:40.561Z,60.83
2022-09-06T03:12:40.554Z,65.42
2022-09-06T03:13:40.588Z,55.71
2022-09-06T03:14:40.566Z,60.48
2022-09-06T03:15:40.531Z,63.07
2022-09-06T03:16:40.614Z,59.02
2022-09-06T03:17:40.519Z,59.73
2022-09-06T03:18:40.502Z,63.59
2022-09-06T03:19:40.531Z,53.17
2022-09-06T03:20:40.932Z,54.96
2022-09-06T03:21:40.494Z,63.98
2022-09-06T03:22:40.510Z,62.53
2022-09-06T03:23:40.475Z,62.17
2022-09-06T03:24:40.490Z,65.07
2022-09-06T03:25:40.447Z,67.51
2022-09-06T03:26:40.462Z,63.49
2022-09-06T03:27:40.465Z,65.16
2022-09-06T03:28:40.432Z,62.00
2022-09-06T03:29:40.472Z,69.18
2022-09-06T03:30:40.481Z,69.39
2022-09-06T03:31:40.541Z,63.98
2022-09-06T03:32:40.439Z,64.75
2022-09-06T03:33:40.420Z,61.99
2022-09-06T03:34:40.467Z,69.09
2022-09-06T03:35:40.367Z,67.07
2022-09-06T03:36:40.374Z,57.89
2022-09-06T03:37:40.378Z,65.70
2022-09-06T03:38:40.396Z,63.49
2022-09-06T03:39:40.437Z,69.31
2022-09-06T03:40:40.338Z,66.61
2022-09-06T03:41:40.319Z,66.60
2022-09-06T03:42:40.335Z,66.66
2022-09-06T03:43:40.306Z,70.37
2022-09-06T03:44:40.334Z,69.23
2022-09-06T03:45:40.332Z,64.60
2022-09-06T03:46:40.280Z,69.27
2022-09-06T03:47:40.283Z,67.69
2022-09-06T03:48:40.282Z,66.18
2022-09-06T03:49:40.319Z,67.12
2022-09-06T03:50:40.246Z,63.79
2022-09-06T03:51:40.242Z,63.63
2022-09-06T03:52:40.247Z,66.16
2022-09-06T03:53:40.223Z,69.88
2022-09-06T03:54:40.269Z,64.69
2022-09-06T03:55:40.228Z,60.14
2022-09-06T03:56:40.209Z,62.15
2022-09-06T03:57:40.534Z,72.23
2022-09-06T03:58:40.189Z,59.44
2022-09-06T03:59:40.221Z,58.43
2022-09-06T04:00:40.164Z,60.78
2022-09-06T04:01:40.229Z,69.48
2022-09-06T04:02:40.191Z,63.76
2022-09-06T04:03:40.125Z,67.07
2022-09-06T04:04:40.128Z,69.01
2022-09-06T04:05:40.148Z,57.31
2022-09-06T04:06:40.112Z,62.92
2022-09-06T04:07:40.103Z,67.37
2022-09-06T04:08:40.109Z,69.05
2022-09-06T04:09:40.100Z,66.91
2022-09-06T04:10:40.121Z,59.18
2022-09-06T04:11:40.064Z,68.77
2022-09-06T04:12:40.107Z,71.18
2022-09-06T04:13:40.083Z,64.95
2022-09-06T04:14:40.042Z,65.24
2022-09-06T04:15:40.064Z,67.48
2022-09-06T04:16:40.094Z,70.48
2022-09-06T04:17:40.011Z,65.68
2022-09-06T04:18:40.012Z,67.42
2022-09-06T04:19:40.006Z,68.52
2022-09-06T04:20:40.027Z,70.14
2022-09-06T04:21:39.980Z,66.18
2022-09-06T04:22:39.967Z,68.31
2022-09-06T04:23:40.200Z,69.28
2022-09-06T04:24:40.972Z,70.13
2022-09-06T04:25:39.977Z,63.04
2022-09-06T04:26:39.931Z,68.60
2022-09-06T04:27:39.941Z,68.74
2022-09-06T04:28:39.925Z,65.47
2022-09-06T04:29:39.920Z,64.80
2022-09-06T04:30:39.934Z,65.31
2022-09-06T04:31:39.946Z,65.76
2022-09-06T04:32:39.885Z,68.68
2022-09-06T04:33:39.880Z,67.40
2022-09-06T04:34:39.879Z,61.25
2022-09-06T04:35:39.894Z,70.36
2022-09-06T04:36:39.861Z,70.32
2022-09-06T04:37:39.853Z,69.46
2022-09-06T04:38:39.867Z,68.49
2022-09-06T04:39:39.876Z,68.24
2022-09-06T04:40:39.848Z,71.17
2022-09-06T04:41:39.987Z,70.79
2022-09-06T04:42:39.803Z,68.26
2022-09-06T04:43:39.803Z,64.22
2022-09-06T04:44:39.792Z,70.55
2022-09-06T04:45:39.860Z,70.44
2022-09-06T04:46:39.783Z,70.53
2022-09-06T04:47:39.786Z,69.99
2022-09-06T04:48:39.772Z,68.62
2022-09-06T04:49:39.769Z,67.07
2022-09-06T04:50:39.779Z,70.61
2022-09-06T04:51:39.757Z,69.63
2022-09-06T04:52:39.821Z,68.73
2022-09-06T04:53:39.723Z,65.71
2022-09-06T04:54:39.734Z,69.18
2022-09-06T04:55:39.735Z,66.16
2022-09-06T04:56:39.715Z,70.87
2022-09-06T04:57:43.731Z,70.93
2022-09-06T04:58:41.721Z,68.07
2022-09-06T04:59:39.684Z,70.04
2022-09-06T05:00:39.748Z,65.60
2022-09-06T05:01:39.665Z,70.67
2022-09-06T05:02:39.708Z,70.15
2022-09-06T05:03:39.677Z,69.74
2022-09-06T05:04:39.635Z,66.40
2022-09-06T05:05:39.673Z,69.97
2022-09-06T05:06:39.656Z,69.34
2022-09-06T05:07:39.613Z,71.96
2022-09-06T05:08:39.600Z,66.75
2022-09-06T05:09:39.593Z,66.98
2022-09-06T05:10:39.584Z,68.56
2022-09-06T05:11:39.611Z,71.05
2022-09-06T05:12:43.592Z,69.00
2022-09-06T05:13:40.655Z,63.64
2022-09-06T05:14:39.548Z,68.77
2022-09-06T05:15:39.573Z,71.03
2022-09-06T05:16:39.580Z,72.25
2022-09-06T05:17:39.523Z,70.58
2022-09-06T05:18:39.514Z,72.14
2022-09-06T05:19:39.548Z,66.06
2022-09-06T05:20:39.500Z,71.78
2022-09-06T05:21:39.529Z,71.17
2022-09-06T05:22:39.498Z,68.99
2022-09-06T05:23:39.481Z,70.66
2022-09-06T05:24:39.476Z,68.72
2022-09-06T05:25:39.469Z,70.45
2022-09-06T05:26:39.474Z,71.91
2022-09-06T05:27:39.444Z,71.46
2022-09-06T05:28:39.439Z,72.82
2022-09-06T05:29:39.447Z,65.66
2022-09-06T05:30:39.424Z,65.88
2022-09-06T05:31:39.515Z,68.66
2022-09-06T05:32:39.417Z,68.37
2022-09-06T05:33:39.463Z,73.86
2022-09-06T05:34:39.405Z,66.52
2022-09-06T05:35:39.423Z,69.92
2022-09-06T05:36:39.416Z,69.80
2022-09-06T05:37:39.370Z,70.03
2022-09-06T05:38:39.450Z,72.68
2022-09-06T05:39:39.384Z,69.12
2022-09-06T05:40:39.338Z,68.79
2022-09-06T05:41:39.390Z,71.05
2022-09-06T05:42:39.313Z,70.95
2022-09-06T05:43:39.315Z,70.22
2022-09-06T05:44:39.317Z,73.37
2022-09-06T05:45:39.350Z,69.32
2022-09-06T05:46:39.313Z,70.14
2022-09-06T05:47:39.278Z,70.51
2022-09-06T05:48:39.289Z,72.10
2022-09-06T05:49:39.275Z,65.57
2022-09-06T05:50:39.249Z,69.12
2022-09-06T05:51:39.280Z,70.95
2022-09-06T05:52:39.232Z,70.86
2022-09-06T05:53:39.221Z,69.21
2022-09-06T05:54:39.227Z,68.57
2022-09-06T05:55:42.856Z,70.01
2022-09-06T05:56:40.234Z,65.48
2022-09-06T05:57:39.191Z,66.84
2022-09-06T05:58:39.182Z,69.53
2022-09-06T05:59:39.181Z,66.21
2022-09-06T06:00:39.170Z,70.85
2022-09-06T06:01:39.257Z,67.65
2022-09-06T06:02:39.198Z,63.00
2022-09-06T06:03:39.141Z,72.63
2022-09-06T06:04:39.132Z,66.84
2022-09-06T06:05:39.150Z,68.22
2022-09-06T06:06:39.167Z,70.35
2022-09-06T06:07:39.104Z,67.74
2022-09-06T06:08:39.103Z,71.66
2022-09-06T06:09:39.188Z,64.94
2022-09-06T06:10:39.099Z,63.90
2022-09-06T06:11:39.129Z,62.22
2022-09-06T06:12:39.089Z,70.36
2022-09-06T06:13:39.051Z,69.65
2022-09-06T06:14:39.055Z,68.76
2022-09-06T06:15:39.063Z,69.03
2022-09-06T06:16:39.103Z,67.52
2022-09-06T06:17:39.025Z,71.72
2022-09-06T06:18:39.039Z,72.91
2022-09-06T06:19:39.013Z,67.82
2022-09-06T06:20:38.997Z,71.51
2022-09-06T06:21:39.035Z,71.20
2022-09-06T06:22:38.977Z,65.19
2022-09-06T06:23:38.972Z,66.09
2022-09-06T06:24:38.988Z,65.97
2022-09-06T06:25:39.957Z,73.39
2022-09-06T06:26:38.986Z,71.00
2022-09-06T06:27:38.948Z,67.30
2022-09-06T06:28:38.954Z,66.49
2022-09-06T06:29:38.915Z,68.31
2022-09-06T06:30:38.966Z,67.82
2022-09-06T06:31:39.049Z,71.38
2022-09-06T06:32:38.886Z,65.87
2022-09-06T06:33:38.947Z,65.94
2022-09-06T06:34:38.887Z,68.18
2022-09-06T06:35:40.233Z,67.96
2022-09-06T06:36:39.904Z,68.79
2022-09-06T06:37:38.868Z,68.67
2022-09-06T06:38:38.874Z,69.89
2022-09-06T06:39:38.962Z,68.50
2022-09-06T06:40:38.850Z,71.61
2022-09-06T06:41:39.438Z,67.38
2022-09-06T06:42:38.821Z,69.45
2022-09-06T06:43:38.805Z,68.72
2022-09-06T06:44:38.801Z,69.89
2022-09-06T06:45:38.840Z,68.27
2022-09-06T06:46:38.831Z,65.83
2022-09-06T06:47:38.788Z,67.57
2022-09-06T06:48:38.760Z,72.44
2022-09-06T06:49:38.766Z,72.03
2022-09-06T06:50:38.872Z,67.33
2022-09-06T06:51:38.780Z,62.69
2022-09-06T06:52:38.740Z,67.76
2022-09-06T06:53:38.748Z,69.72
2022-09-06T06:54:38.737Z,69.48
2022-09-06T06:55:38.707Z,65.76
2022-09-06T06:56:38.771Z,64.61
2022-09-06T06:57:38.719Z,70.79
2022-09-06T06:58:38.666Z,65.70
2022-09-06T06:59:39.704Z,66.61
2022-09-06T07:00:38.995Z,69.42
2022-09-06T07:01:38.814Z,69.88
2022-09-06T07:02:38.651Z,70.49
2022-09-06T07:03:39.666Z,64.03
2022-09-06T07:04:38.663Z,66.85
2022-09-06T07:07:41.139Z,63.73
2022-09-06T07:08:38.603Z,65.48
2022-09-06T07:10:40.607Z,70.19
2022-09-06T07:11:38.633Z,70.49
2022-09-06T07:12:38.565Z,65.45
2022-09-06T07:13:38.637Z,65.74
2022-09-06T07:14:38.558Z,68.57
2022-09-06T07:15:40.876Z,61.23
2022-09-06T07:16:38.613Z,67.73
2022-09-06T07:17:38.546Z,70.03
2022-09-06T07:18:38.524Z,69.72
2022-09-06T07:21:40.526Z,70.61
2022-09-06T07:22:38.497Z,67.99
2022-09-06T07:24:40.489Z,68.90
2022-09-06T07:25:38.469Z,71.07
2022-09-06T07:26:40.298Z,63.88
2022-09-06T07:28:40.435Z,65.11
2022-09-06T07:29:38.466Z,65.01
2022-09-06T07:30:38.415Z,68.31
2022-09-06T07:32:40.406Z,59.78
2022-09-06T07:33:38.410Z,67.36
2022-09-06T07:34:38.409Z,69.08
2022-09-06T07:35:38.378Z,63.28
2022-09-06T07:36:38.386Z,65.15
2022-09-06T07:37:38.394Z,68.57
2022-09-06T07:38:38.370Z,69.58
2022-09-06T07:39:38.362Z,62.33
2022-09-06T07:40:38.357Z,65.25
2022-09-06T07:41:38.325Z,70.80
2022-09-06T07:42:38.377Z,64.19
2022-09-06T07:43:38.322Z,63.24
2022-09-06T07:44:38.304Z,63.73
2022-09-06T07:45:38.297Z,66.20
2022-09-06T07:46:38.330Z,69.31
2022-09-06T07:48:40.319Z,63.05
2022-09-06T07:49:38.553Z,68.32
2022-09-06T07:51:40.250Z,67.65
2022-09-06T07:53:40.234Z,65.71
2022-09-06T07:54:38.226Z,68.18
2022-09-06T07:55:38.226Z,67.28
2022-09-06T07:56:38.207Z,65.40
2022-09-06T07:57:38.229Z,71.48
2022-09-06T07:58:39.193Z,63.88
2022-09-06T07:59:42.442Z,65.70
2022-09-06T08:00:39.204Z,68.02
2022-09-06T08:01:38.164Z,64.42
2022-09-06T08:02:38.197Z,69.68
2022-09-06T08:03:38.149Z,57.92
2022-09-06T08:04:38.175Z,66.13
2022-09-06T08:07:40.517Z,67.20
2022-09-06T08:09:40.115Z,65.31
2022-09-06T08:10:38.107Z,66.30
2022-09-06T08:11:38.110Z,67.44
2022-09-06T08:12:38.099Z,65.53
2022-09-06T08:13:38.067Z,67.46
2022-09-06T08:14:38.068Z,68.91
2022-09-06T08:15:41.533Z,69.65
2022-09-06T08:16:39.108Z,67.62
2022-09-06T08:17:38.063Z,62.62
2022-09-06T08:18:38.039Z,65.08
2022-09-06T08:19:38.013Z,66.86
2022-09-06T08:20:38.016Z,62.80
2022-09-06T08:21:38.004Z,67.67
2022-09-06T08:22:38.028Z,66.89
2022-09-06T08:23:37.986Z,66.99
2022-09-06T08:24:37.980Z,64.24
2022-09-06T08:25:37.965Z,67.11
2022-09-06T08:26:37.985Z,67.87
2022-09-06T08:27:38.015Z,66.72
2022-09-06T08:28:37.937Z,62.95
2022-09-06T08:29:37.929Z,67.39
2022-09-06T08:30:37.933Z,68.76
2022-09-06T08:31:37.967Z,62.70
2022-09-06T08:32:37.922Z,65.58
2022-09-06T08:33:37.992Z,65.06
2022-09-06T08:34:37.893Z,66.54
2022-09-06T08:35:37.899Z,67.07
2022-09-06T08:36:37.884Z,68.09
2022-09-06T08:37:37.892Z,68.66
2022-09-06T08:38:37.880Z,66.98
2022-09-06T08:39:37.904Z,62.88
2022-09-06T08:40:37.860Z,66.15
2022-09-06T08:41:37.835Z,66.43
2022-09-06T08:42:37.861Z,68.67
2022-09-06T08:43:37.830Z,64.42
2022-09-06T08:45:39.836Z,62.03
2022-09-06T08:46:37.867Z,64.94
2022-09-06T08:47:37.867Z,70.99
2022-09-06T08:48:37.779Z,57.39
2022-09-06T08:49:37.771Z,64.67
2022-09-06T08:50:37.776Z,62.47
2022-09-06T08:51:38.569Z,70.24
2022-09-06T08:52:45.279Z,62.64
2022-09-06T08:53:39.735Z,68.37
2022-09-06T08:54:37.721Z,66.90
2022-09-06T08:55:37.815Z,67.04
2022-09-06T08:56:37.709Z,65.84
2022-09-06T08:57:40.315Z,62.34
2022-09-06T08:58:38.700Z,68.33
2022-09-06T08:59:37.685Z,67.80
2022-09-06T09:00:37.745Z,62.63
2022-09-06T09:01:37.701Z,67.64
2022-09-06T09:02:37.670Z,68.27
2022-09-06T09:03:37.691Z,66.08
2022-09-06T09:04:37.644Z,66.67
2022-09-06T09:05:37.643Z,65.50
2022-09-06T09:06:37.640Z,62.07
2022-09-06T09:07:37.658Z,68.79
2022-09-06T09:08:37.619Z,69.26
2022-09-06T09:09:37.609Z,68.42
2022-09-06T09:10:37.612Z,62.93
2022-09-06T09:11:37.628Z,64.91
2022-09-06T09:12:37.619Z,69.66
2022-09-06T09:13:37.589Z,64.69
2022-09-06T09:14:37.576Z,62.61
2022-09-06T09:15:40.366Z,64.74
2022-09-06T09:16:38.631Z,68.58
2022-09-06T09:17:37.591Z,61.71
2022-09-06T09:18:37.552Z,61.91
2022-09-06T09:19:37.541Z,69.28
2022-09-06T09:20:37.537Z,67.23
2022-09-06T09:21:37.533Z,68.17
2022-09-06T09:22:37.556Z,64.64
2022-09-06T09:23:37.509Z,63.18
2022-09-06T09:24:37.516Z,67.44
2022-09-06T09:25:37.503Z,59.48
2022-09-06T09:26:37.485Z,57.60
2022-09-06T09:27:37.521Z,65.39
2022-09-06T09:28:37.511Z,67.49
2022-09-06T09:29:37.482Z,58.82
2022-09-06T09:30:52.750Z,67.67
2022-09-06T09:31:39.596Z,60.05
2022-09-06T09:32:38.155Z,68.20
2022-09-06T09:33:37.468Z,68.43
2022-09-06T09:34:37.423Z,60.36
2022-09-06T09:35:37.434Z,65.98
2022-09-06T09:36:37.483Z,63.47
2022-09-06T09:38:39.445Z,60.82
2022-09-06T09:39:37.465Z,61.76
2022-09-06T09:40:37.389Z,65.49
2022-09-06T09:41:37.375Z,63.63
2022-09-06T09:42:37.400Z,63.34
2022-09-06T09:43:37.400Z,64.59
2022-09-06T09:44:37.410Z,68.94
2022-09-06T09:45:37.365Z,66.44
2022-09-06T09:46:37.391Z,63.33
2022-09-06T09:47:37.338Z,63.06
2022-09-06T09:48:37.349Z,67.09
2022-09-06T09:49:37.314Z,67.76
2022-09-06T09:50:37.372Z,56.93
2022-09-06T09:51:37.301Z,60.95
2022-09-06T09:52:37.293Z,63.27
2022-09-06T09:53:37.310Z,68.51
2022-09-06T09:54:37.300Z,63.25
2022-09-06T09:55:37.279Z,62.92
2022-09-06T09:56:37.275Z,65.29
2022-09-06T09:57:37.251Z,66.33
2022-09-06T09:58:37.287Z,64.49
2022-09-06T09:59:37.243Z,65.81
2022-09-06T10:00:37.258Z,66.13
2022-09-06T10:01:37.229Z,61.86
2022-09-06T10:02:37.224Z,61.38
2022-09-06T10:04:45.776Z,57.18
2022-09-06T10:05:39.192Z,70.61
2022-09-06T10:07:39.217Z,58.85
2022-09-06T10:08:37.211Z,62.39
2022-09-06T10:09:37.178Z,65.76
2022-09-06T10:10:37.175Z,65.92
2022-09-06T10:11:37.177Z,62.58
2022-09-06T10:12:37.146Z,56.53
2022-09-06T10:13:37.169Z,68.55
2022-09-06T10:14:37.151Z,65.18
2022-09-06T10:15:37.146Z,56.80
2022-09-06T10:16:37.115Z,63.21
2022-09-06T10:17:37.120Z,66.47
2022-09-06T10:18:37.137Z,61.16
2022-09-06T10:19:37.098Z,62.83
2022-09-06T10:20:37.100Z,63.25
2022-09-06T10:21:37.106Z,66.15
2022-09-06T10:22:37.087Z,63.52
2022-09-06T10:24:39.069Z,64.45
2022-09-06T10:25:37.052Z,67.66
2022-09-06T10:26:37.049Z,66.71
2022-09-06T10:27:39.947Z,61.25
2022-09-06T10:28:38.070Z,63.98
2022-09-06T10:29:37.079Z,65.58
2022-09-06T10:30:37.016Z,67.30
2022-09-06T10:31:37.162Z,65.37
2022-09-06T10:32:37.004Z,64.70
2022-09-06T10:33:37.040Z,61.41
2022-09-06T10:34:37.013Z,64.61
2022-09-06T10:35:36.988Z,65.11
2022-09-06T10:36:36.989Z,62.73
2022-09-06T10:37:36.976Z,65.86
2022-09-06T10:38:37.013Z,61.58
2022-09-06T10:39:37.076Z,65.51
2022-09-06T10:40:36.964Z,66.66
2022-09-06T10:41:37.004Z,59.09
2022-09-06T10:42:36.943Z,54.35
2022-09-06T10:43:36.935Z,66.75
2022-09-06T10:44:36.985Z,66.53
2022-09-06T10:45:36.929Z,63.82
2022-09-06T10:46:36.955Z,63.90
2022-09-06T10:47:36.932Z,63.38
2022-09-06T10:48:36.933Z,60.94
2022-09-06T10:49:36.938Z,65.49
2022-09-06T10:50:36.922Z,62.05
2022-09-06T10:51:36.896Z,57.90
2022-09-06T10:52:36.888Z,62.91
2022-09-06T10:53:36.877Z,64.82
2022-09-06T10:54:36.911Z,66.33
2022-09-06T10:55:36.865Z,62.07
2022-09-06T10:56:36.872Z,59.97
2022-09-06T10:59:39.197Z,64.45
2022-09-06T11:00:36.835Z,60.51
2022-09-06T11:01:36.979Z,59.88
2022-09-06T11:02:36.944Z,64.26
2022-09-06T11:05:39.073Z,60.29
2022-09-06T11:06:36.797Z,67.11
2022-09-06T11:07:36.831Z,61.12
2022-09-06T11:08:53.476Z,62.42
2022-09-06T11:09:38.810Z,66.27
2022-09-06T11:10:36.770Z,63.84
2022-09-06T11:11:36.764Z,65.66
2022-09-06T11:12:36.759Z,64.14
2022-09-06T11:13:36.753Z,64.94
2022-09-06T11:14:36.778Z,64.05
2022-09-06T11:15:36.771Z,65.72
2022-09-06T11:16:36.737Z,60.17
2022-09-06T11:17:36.719Z,63.37
2022-09-06T11:18:36.719Z,62.58
2022-09-06T11:19:36.753Z,62.72
2022-09-06T11:20:36.702Z,67.25
2022-09-06T11:21:36.706Z,65.91
2022-09-06T11:22:36.704Z,61.26
2022-09-06T11:23:36.697Z,62.03
2022-09-06T11:24:36.709Z,68.75
2022-09-06T11:25:36.686Z,67.35
2022-09-06T11:26:36.680Z,64.23
2022-09-06T11:27:36.663Z,62.57
2022-09-06T11:28:36.661Z,67.54
2022-09-06T11:29:36.681Z,64.77
2022-09-06T11:30:36.648Z,62.77
2022-09-06T11:32:38.644Z,67.11
2022-09-06T11:33:36.630Z,68.02
2022-09-06T11:34:36.654Z,59.83
2022-09-06T11:35:36.624Z,65.79
2022-09-06T11:36:36.628Z,64.98
2022-09-06T11:37:36.609Z,69.24
2022-09-06T11:38:36.598Z,66.41
2022-09-06T11:40:38.592Z,63.89
2022-09-06T11:41:36.585Z,69.03
2022-09-06T11:42:36.578Z,67.87
2022-09-06T11:43:36.578Z,64.65
2022-09-06T11:44:36.594Z,65.24
2022-09-06T11:45:36.574Z,63.45
2022-09-06T11:46:36.590Z,63.09
2022-09-06T11:47:36.552Z,64.15
2022-09-06T11:48:36.549Z,68.52
2022-09-06T11:49:36.562Z,67.71
2022-09-06T11:50:36.533Z,66.61
2022-09-06T11:51:36.522Z,61.14
2022-09-06T11:52:36.518Z,62.41
2022-09-06T11:53:36.526Z,65.88
2022-09-06T11:54:36.547Z,65.65
2022-09-06T11:55:36.511Z,64.50
2022-09-06T11:56:36.492Z,62.43
2022-09-06T11:57:36.491Z,63.37
2022-09-06T11:58:36.489Z,65.62
2022-09-06T11:59:36.504Z,67.95
2022-09-06T12:00:36.470Z,59.52
2022-09-06T12:01:36.475Z,61.28
2022-09-06T12:02:36.686Z,64.09
2022-09-06T12:04:38.473Z,68.10
2022-09-06T12:05:36.431Z,60.88
2022-09-06T12:06:36.424Z,63.67
2022-09-06T12:07:36.418Z,65.20
2022-09-06T12:08:36.417Z,67.39
2022-09-06T12:09:36.419Z,63.04
2022-09-06T12:10:36.435Z,65.95
2022-09-06T12:11:36.404Z,64.72
2022-09-06T12:12:36.401Z,65.10
2022-09-06T12:13:36.383Z,59.28
2022-09-06T12:14:36.372Z,63.01
2022-09-06T12:15:36.420Z,65.41
2022-09-06T12:16:36.362Z,62.19
2022-09-06T12:17:36.363Z,67.12
2022-09-06T12:18:36.353Z,65.38
2022-09-06T12:19:37.496Z,64.87
2022-09-06T12:20:36.365Z,59.85
2022-09-06T12:21:36.321Z,63.72
2022-09-06T12:22:36.369Z,62.47
2022-09-06T12:23:36.334Z,68.40
2022-09-06T12:24:36.349Z,62.87
2022-09-06T12:25:36.330Z,60.11
2022-09-06T12:26:36.290Z,58.69
2022-09-06T12:27:36.289Z,64.11
2022-09-06T12:28:36.291Z,64.60
2022-09-06T12:29:36.280Z,65.12
2022-09-06T12:30:36.297Z,60.11
2022-09-06T12:31:37.335Z,64.41
2022-09-06T12:32:37.313Z,62.48
2022-09-06T12:33:37.261Z,66.87
2022-09-06T12:34:36.260Z,66.76
2022-09-06T12:36:07.712Z,65.22
2022-09-06T12:36:38.230Z,63.58
2022-09-06T12:37:36.278Z,64.99
2022-09-06T12:38:36.228Z,69.61
2022-09-06T12:39:36.246Z,67.92
2022-09-06T12:40:36.238Z,63.23
2022-09-06T12:41:38.309Z,60.43
2022-09-06T12:42:37.198Z,65.26
2022-09-06T12:43:36.193Z,61.20
2022-09-06T12:44:36.187Z,65.90
2022-09-06T12:45:36.202Z,66.13
2022-09-06T12:46:36.189Z,66.72
2022-09-06T12:47:36.170Z,68.07
2022-09-06T12:48:36.156Z,64.40
2022-09-06T12:49:36.152Z,67.68
2022-09-06T12:50:36.186Z,68.77
2022-09-06T12:51:36.143Z,63.36
2022-09-06T12:52:36.134Z,63.66
2022-09-06T12:53:36.122Z,64.76
2022-09-06T12:54:36.113Z,66.10
2022-09-06T12:55:36.144Z,66.93
2022-09-06T12:56:36.096Z,65.26
2022-09-06T12:57:36.087Z,65.03
2022-09-06T12:58:36.088Z,68.26
2022-09-06T12:59:36.073Z,64.79
2022-09-06T13:00:36.097Z,66.51
2022-09-06T13:01:36.223Z,69.61
2022-09-06T13:02:36.230Z,67.87
2022-09-06T13:03:36.055Z,65.68
2022-09-06T13:04:36.040Z,65.93
2022-09-06T13:05:36.068Z,66.69
2022-09-06T13:06:36.024Z,68.75
2022-09-06T13:07:36.012Z,67.42
2022-09-06T13:08:36.001Z,66.69
2022-09-06T13:09:37.037Z,64.19
2022-09-06T13:10:36.029Z,70.92
2022-09-06T13:11:36.027Z,67.74
2022-09-06T13:12:35.989Z,66.61
2022-09-06T13:13:35.970Z,64.63
2022-09-06T13:14:35.975Z,68.14
2022-09-06T13:15:36.033Z,69.22
2022-09-06T13:16:35.995Z,67.11
2022-09-06T13:17:35.966Z,64.95
2022-09-06T13:18:35.940Z,69.85